Gertrude V. Creel — WDH7805 — position and weather

sailwx.info

Track history (hours):
 
Tides and Currents Weather Stations Pressure Air Temp Water Temp Dewpoint Dewpoint Depression Visibility Wind Speed Wind Dir Waves Ship Positions

Gertrude V. Creel

Owner: Blessey Enterprises, Inc., Harahan, LA. More information available from US FCC via Universal Licensing System and Coast Guard Vessel Documentation Center.

Last reported at 2018-May-25 11:00 UTC. Time now 2018-May-25 11:08 UTC.
Position N 29°58' W 093°51'.

Length 76 m; draft 2.7 m.

Type: Towing. MMSI: 367651830.

Date/timePositionNaut miles runAvg speedWind from/ knotsBaromVisibWave heightAir tempDewpointWater temp
2018-May-25 11:00N 29°58' W 093°51'0 0.0
2018-May-25 10:30N 29°58' W 093°51'0 0.0
2018-May-25 10:00N 29°58' W 093°51'0 0.0
2018-May-25 09:30N 29°58' W 093°51'0 0.0
2018-May-25 09:00N 29°58' W 093°51'0 0.0
2018-May-25 08:30N 29°58' W 093°51'0 0.0
2018-May-25 08:00N 29°58' W 093°51'0 0.0
2018-May-25 07:30N 29°58' W 093°51'0 0.1
2018-May-25 07:00N 29°58' W 093°51'0 0.3
2018-May-25 06:30N 29°58' W 093°51'1 1.1
2018-May-25 06:00N 29°59' W 093°52'5 9.1
2018-May-25 05:30N 29°60' W 093°57'4 7.0
2018-May-25 05:00N 30°01' W 094°00'4 7.8
2018-May-25 04:30N 30°04' W 094°03'1 1.0
2018-May-25 04:00N 30°04' W 094°04'0 0.0
2018-May-25 03:28N 30°04' W 094°04'0 0.0
2018-May-25 03:00N 30°04' W 094°04'0 0.0
2018-May-25 02:30N 30°04' W 094°04'0 0.0
2018-May-25 02:00N 30°04' W 094°04'0 0.0
2018-May-25 01:30N 30°04' W 094°04'0 0.0
2018-May-25 00:57N 30°04' W 094°04'0 0.0
2018-May-25 00:30N 30°04' W 094°04'0 0.0
2018-May-25 00:00N 30°04' W 094°04'0 0.0
2018-May-24 23:30N 30°04' W 094°04'0 0.0
2018-May-24 22:59N 30°04' W 094°04'0 0.0
2018-May-24 22:30N 30°04' W 094°04'0 0.0
2018-May-24 22:00N 30°04' W 094°04'0 0.0
2018-May-24 21:30N 30°04' W 094°04'0 0.0
2018-May-24 20:58N 30°04' W 094°04'0 0.0
2018-May-24 20:30N 30°04' W 094°04'0 0.0
2018-May-24 20:00N 30°04' W 094°04'0 0.0
2018-May-24 19:30N 30°04' W 094°04'0 0.0
2018-May-24 18:56N 30°04' W 094°04'0 0.0
2018-May-24 18:30N 30°04' W 094°04'0 0.0
2018-May-24 17:58N 30°04' W 094°04'0 0.0
2018-May-24 17:30N 30°04' W 094°04'0 0.0
2018-May-24 17:00N 30°04' W 094°04'0 0.0
2018-May-24 16:29N 30°04' W 094°04'0 0.0
2018-May-24 16:00N 30°04' W 094°04'0 0.0
2018-May-24 15:30N 30°04' W 094°04'0 0.0
2018-May-24 15:00N 30°04' W 094°04'0 0.0
2018-May-24 14:30N 30°04' W 094°04'0 0.0
2018-May-24 14:00N 30°04' W 094°04'0 0.0
2018-May-24 13:30N 30°04' W 094°04'0 0.0
2018-May-24 09:00N 30°04' W 094°04'1 1.4
2018-May-24 08:30N 30°04' W 094°03'3 6.8
2018-May-24 08:00N 30°01' W 094°01'3 6.7
2018-May-24 07:30N 30°00' W 093°57'4 7.9
2018-May-24 07:00N 29°59' W 093°53'2 3.8
2018-May-24 06:30N 29°58' W 093°51'0 0.3
2018-May-24 06:00N 29°58' W 093°51'0 0.0
2018-May-24 05:30N 29°58' W 093°51'0 0.0
2018-May-24 05:00N 29°58' W 093°51'0 0.0
2018-May-24 04:30N 29°58' W 093°51'0 0.0
2018-May-24 04:00N 29°58' W 093°51'0 0.0
2018-May-24 03:30N 29°58' W 093°51'0 0.0
2018-May-24 03:00N 29°58' W 093°51'0 0.0
2018-May-24 02:30N 29°58' W 093°51'0 0.0
2018-May-24 02:00N 29°58' W 093°51'0 0.0
2018-May-24 01:30N 29°58' W 093°51'0 0.0
2018-May-24 01:00N 29°58' W 093°51'0 0.0
2018-May-24 00:30N 29°58' W 093°51'0 0.0
2018-May-24 00:00N 29°58' W 093°51'0 0.0
2018-May-23 23:30N 29°58' W 093°51'0 0.0
2018-May-23 23:00N 29°58' W 093°51'0 0.0
2018-May-23 22:30N 29°58' W 093°51'0 0.0
2018-May-23 22:00N 29°58' W 093°51'0 0.0
2018-May-23 21:30N 29°58' W 093°51'0 0.0
2018-May-23 21:00N 29°58' W 093°51'0 0.0
2018-May-23 20:30N 29°58' W 093°51'0 0.0
2018-May-23 20:00N 29°58' W 093°51'0 0.0
2018-May-23 19:30N 29°58' W 093°51'0 0.0
2018-May-23 19:00N 29°58' W 093°51'0 0.0
2018-May-23 18:30N 29°58' W 093°51'0 0.0
2018-May-23 18:00N 29°58' W 093°51'0 0.0
2018-May-23 17:30N 29°58' W 093°51'0 0.0
2018-May-23 17:00N 29°58' W 093°51'0 0.0
2018-May-23 16:30N 29°58' W 093°51'0 0.0
2018-May-23 16:00N 29°58' W 093°51'0 0.0
2018-May-23 15:30N 29°58' W 093°51'0 0.0
2018-May-23 15:00N 29°58' W 093°51'0 0.0
2018-May-23 14:30N 29°58' W 093°51'0 0.0
2018-May-23 14:00N 29°58' W 093°51'0 0.0
2018-May-23 13:30N 29°58' W 093°51'0 0.0
2018-May-23 13:00N 29°58' W 093°51'0 0.3
2018-May-23 12:30N 29°58' W 093°51'0 0.0
2018-May-23 12:00N 29°58' W 093°51'0 0.0
2018-May-23 11:30N 29°58' W 093°51'0 0.0
2018-May-23 10:59N 29°58' W 093°51'0 0.0
2018-May-23 10:30N 29°58' W 093°51'0 0.0
2018-May-23 09:55N 29°58' W 093°51'0 0.0
2018-May-23 09:20N 29°58' W 093°51'0 0.0
2018-May-23 08:59N 29°58' W 093°51'0 0.0
2018-May-23 08:28N 29°58' W 093°51'0 0.0
2018-May-23 07:59N 29°58' W 093°51'0 0.0
2018-May-23 07:30N 29°58' W 093°51'0 0.0
2018-May-23 07:00N 29°58' W 093°51'0 0.0
2018-May-23 06:30N 29°58' W 093°51'0 0.0
2018-May-23 05:59N 29°58' W 093°51'0 0.0
2018-May-23 05:29N 29°58' W 093°51'0 0.0
2018-May-23 05:00N 29°58' W 093°51'0 0.0
2018-May-23 04:29N 29°58' W 093°51'0 0.0
2018-May-23 04:00N 29°58' W 093°51'0 0.0
2018-May-23 03:30N 29°58' W 093°51'0 0.0
2018-May-23 02:57N 29°58' W 093°51'0 0.0
2018-May-23 02:30N 29°58' W 093°51'0 0.0
2018-May-23 02:00N 29°58' W 093°51'0 0.0
2018-May-23 01:29N 29°58' W 093°51'0 0.0
2018-May-23 00:58N 29°58' W 093°51'0 0.0
2018-May-23 00:30N 29°58' W 093°51'0 0.0
2018-May-23 00:00N 29°58' W 093°51'0 0.0
2018-May-22 23:30N 29°58' W 093°51'0 0.0
2018-May-22 23:00N 29°58' W 093°51'0 0.0
2018-May-22 22:30N 29°58' W 093°51'0 0.0
2018-May-22 22:00N 29°58' W 093°51'0 0.0
2018-May-22 21:30N 29°58' W 093°51'0 0.0
2018-May-22 21:00N 29°58' W 093°51'0 0.0
2018-May-22 20:30N 29°58' W 093°51'0 0.0
2018-May-22 20:00N 29°58' W 093°51'0 0.0
2018-May-22 19:30N 29°58' W 093°51'0 0.0
2018-May-22 19:00N 29°58' W 093°51'0 0.0
2018-May-22 18:30N 29°58' W 093°51'0 0.0
2018-May-22 18:00N 29°58' W 093°51'0 0.0
2018-May-22 17:30N 29°58' W 093°51'0 0.0
2018-May-22 17:00N 29°58' W 093°51'0 0.0
2018-May-22 16:30N 29°58' W 093°51'0 0.1
2018-May-22 16:01N 29°58' W 093°51'0 0.0
2018-May-22 15:30N 29°58' W 093°51'0 0.0
2018-May-22 15:01N 29°58' W 093°51'0 0.0
2018-May-22 14:30N 29°58' W 093°51'0 0.0
2018-May-22 14:00N 29°58' W 093°51'0 0.0
2018-May-22 13:30N 29°58' W 093°51'0 0.0
2018-May-22 13:01N 29°58' W 093°51'0 0.0
2018-May-22 12:31N 29°58' W 093°51'0 0.0
2018-May-22 12:00N 29°58' W 093°51'0 0.1
2018-May-22 11:30N 29°58' W 093°51'0 0.0
2018-May-22 11:00N 29°58' W 093°51'0 0.0
2018-May-22 10:31N 29°58' W 093°51'0 0.0
2018-May-22 10:00N 29°58' W 093°51'0 0.0
2018-May-22 09:30N 29°58' W 093°51'0 0.0
2018-May-22 09:00N 29°58' W 093°51'0 0.0
2018-May-22 08:30N 29°58' W 093°51'0 0.0
2018-May-22 08:01N 29°58' W 093°51'0 0.0
2018-May-22 07:30N 29°58' W 093°51'0 0.0
2018-May-22 07:00N 29°58' W 093°51'0 0.0
2018-May-22 06:30N 29°58' W 093°51'0 0.0
2018-May-22 06:00N 29°58' W 093°51'0 0.0
2018-May-22 05:30N 29°58' W 093°51'0 0.0
2018-May-22 05:00N 29°58' W 093°51'0 0.0
2018-May-22 04:30N 29°58' W 093°51'0 0.0
2018-May-22 04:00N 29°58' W 093°51'0 0.0
2018-May-22 03:30N 29°58' W 093°51'0 0.0
2018-May-22 03:00N 29°58' W 093°51'0 0.0
2018-May-22 02:31N 29°58' W 093°51'0 0.0
2018-May-22 02:00N 29°58' W 093°51'0 0.0
2018-May-22 01:30N 29°58' W 093°51'0 0.1
2018-May-22 00:59N 29°58' W 093°51'0 0.1
2018-May-22 00:30N 29°58' W 093°51'0 0.1
2018-May-22 00:00N 29°58' W 093°51'0 0.0
2018-May-21 23:30N 29°58' W 093°51'0 0.0
2018-May-21 23:00N 29°58' W 093°51'0 0.0
2018-May-21 22:31N 29°58' W 093°51'0 0.0
2018-May-21 22:00N 29°58' W 093°51'0 0.0
2018-May-21 21:30N 29°58' W 093°51'0 0.0
2018-May-21 21:00N 29°58' W 093°51'0 0.0
2018-May-21 20:30N 29°58' W 093°51'0 0.0
2018-May-21 20:00N 29°58' W 093°51'0 0.0
2018-May-21 19:31N 29°58' W 093°51'0 0.0
2018-May-21 19:00N 29°58' W 093°51'0 0.0
2018-May-21 18:30N 29°58' W 093°51'0 0.0
2018-May-21 18:00N 29°58' W 093°51'0 0.0
2018-May-21 17:30N 29°58' W 093°51'0 0.0
2018-May-21 17:00N 29°58' W 093°51'1 1.1
2018-May-21 16:30N 29°58' W 093°51'0 0.1
2018-May-21 16:00N 29°58' W 093°51'0 0.0
2018-May-21 15:30N 29°58' W 093°51'0 0.0
2018-May-21 14:55N 29°58' W 093°51'0 0.0
2018-May-21 14:25N 29°58' W 093°51'1 1.4
2018-May-21 14:00N 29°58' W 093°51'0 0.0
2018-May-21 13:30N 29°58' W 093°51'0 0.0
2018-May-21 13:00N 29°58' W 093°51'0 0.0
2018-May-21 12:30N 29°58' W 093°51'0 0.0
2018-May-21 12:00N 29°58' W 093°51'0 0.0
2018-May-21 11:30N 29°58' W 093°51'0 0.0
2018-May-21 11:00N 29°58' W 093°51'0 0.0
2018-May-21 10:30N 29°58' W 093°51'0 0.0
2018-May-21 10:00N 29°58' W 093°51'0 0.0
2018-May-21 09:30N 29°58' W 093°51'0 0.0
2018-May-21 09:00N 29°58' W 093°51'0 0.0
2018-May-21 08:30N 29°58' W 093°51'0 0.0
2018-May-21 08:00N 29°58' W 093°51'0 0.0
2018-May-21 07:30N 29°58' W 093°51'0 0.0
2018-May-21 07:00N 29°58' W 093°51'0 0.0
2018-May-21 06:30N 29°58' W 093°51'0 0.0
2018-May-21 05:59N 29°58' W 093°51'0 0.0
2018-May-21 05:30N 29°58' W 093°51'0 0.0
2018-May-21 05:00N 29°58' W 093°51'0 0.0
2018-May-21 04:30N 29°58' W 093°51'0 0.0
2018-May-21 04:00N 29°58' W 093°51'0 0.0
2018-May-21 03:30N 29°58' W 093°51'0 0.0
2018-May-21 03:00N 29°58' W 093°51'0 0.0
2018-May-21 02:30N 29°58' W 093°51'1 2.5
2018-May-21 02:00N 29°57' W 093°52'4 7.4
2018-May-21 01:30N 29°54' W 093°54'4 7.3
2018-May-21 01:00N 29°51' W 093°57'3 6.5
2018-May-21 00:30N 29°49' W 093°59'3 6.0
2018-May-21 00:00N 29°47' W 094°02'3 5.7
2018-May-20 23:30N 29°45' W 094°04'3 5.6
2018-May-20 23:00N 29°43' W 094°07'3 5.5
2018-May-20 22:30N 29°42' W 094°09'3 5.4
2018-May-20 21:59N 29°41' W 094°12'10 5.6
2018-May-20 20:11N 29°36' W 094°23'2 4.7
2018-May-20 19:44N 29°35' W 094°25'22 5.0
2018-May-20 15:15N 29°23' W 094°46'1 5.6
2018-May-20 15:00N 29°22' W 094°48'2 3.3
2018-May-20 14:30N 29°23' W 094°49'3 5.7
2018-May-20 14:00N 29°26' W 094°50'3 6.0
2018-May-20 13:25N 29°29' W 094°52'3 6.3
2018-May-20 12:58N 29°32' W 094°54'3 6.5
2018-May-20 12:30N 29°34' W 094°55'4 7.1
2018-May-20 12:00N 29°37' W 094°58'4 7.6
2018-May-20 11:30N 29°41' W 094°59'4 0.8
2018-May-20 07:04N 29°44' W 095°01'0 0.0
2018-May-19 16:08N 29°44' W 095°01'0 0.0
2018-May-19 05:54N 29°44' W 095°01'0 0.0
2018-May-18 19:39N 29°44' W 095°01'0 1.8
2018-May-18 19:30N 29°44' W 095°02'4 0.8
2018-May-18 14:03N 29°47' W 095°05'0 0.0
2018-May-18 14:00N 29°47' W 095°05'0 0.0
2018-May-18 13:26N 29°47' W 095°05'0 0.0
2018-May-18 12:39N 29°47' W 095°05'0 0.0
2018-May-18 12:29N 29°47' W 095°05'0 0.0
2018-May-18 11:56N 29°47' W 095°05'0 0.0
2018-May-18 11:30N 29°47' W 095°05'0 0.0
2018-May-18 11:00N 29°47' W 095°05'0 0.0
2018-May-18 10:31N 29°47' W 095°05'0 0.0
2018-May-18 10:00N 29°47' W 095°05'0 0.0
2018-May-18 09:31N 29°47' W 095°05'0 0.0
2018-May-18 09:00N 29°47' W 095°05'0 0.0
2018-May-18 08:30N 29°47' W 095°05'0 0.0
2018-May-18 08:00N 29°47' W 095°05'0 0.0
2018-May-18 07:30N 29°47' W 095°05'0 0.0
2018-May-18 07:00N 29°47' W 095°05'0 0.0
2018-May-18 06:30N 29°47' W 095°05'0 0.0
2018-May-18 06:00N 29°47' W 095°05'0 0.0
2018-May-18 05:30N 29°47' W 095°05'0 0.0
2018-May-18 05:00N 29°47' W 095°05'0 0.0
2018-May-18 04:30N 29°47' W 095°05'0 0.0
2018-May-18 04:00N 29°47' W 095°05'0 0.0
2018-May-18 03:30N 29°47' W 095°05'0 0.0
2018-May-18 03:01N 29°47' W 095°05'0 0.0
2018-May-18 02:30N 29°47' W 095°05'0 0.2
2018-May-18 02:01N 29°47' W 095°05'0 0.0
2018-May-17 14:43N 29°47' W 095°05'0 0.0
2018-May-17 14:28N 29°47' W 095°05'0 0.0
2018-May-17 13:57N 29°47' W 095°05'0 0.0
2018-May-17 13:30N 29°47' W 095°05'0 0.0
2018-May-17 13:00N 29°47' W 095°05'0 0.0
2018-May-17 12:31N 29°47' W 095°05'0 0.0
2018-May-17 12:00N 29°47' W 095°05'0 0.0
2018-May-17 11:30N 29°47' W 095°05'0 0.0
2018-May-17 11:00N 29°47' W 095°05'0 0.0
2018-May-17 10:30N 29°47' W 095°05'0 0.0
2018-May-17 10:01N 29°47' W 095°05'0 0.0
2018-May-17 09:31N 29°47' W 095°05'0 0.0
2018-May-17 09:00N 29°47' W 095°05'0 0.0
2018-May-17 08:30N 29°47' W 095°05'0 0.0
2018-May-17 08:01N 29°47' W 095°05'0 0.0
2018-May-17 07:30N 29°47' W 095°05'0 0.0
2018-May-17 06:57N 29°47' W 095°05'0 0.0
2018-May-17 06:30N 29°47' W 095°05'0 0.0
2018-May-17 06:00N 29°47' W 095°05'0 0.0
2018-May-17 05:30N 29°47' W 095°05'0 0.0
2018-May-17 05:00N 29°47' W 095°05'0 0.0
2018-May-17 04:30N 29°47' W 095°05'0 0.0
2018-May-17 04:01N 29°47' W 095°05'0 0.0
2018-May-17 03:30N 29°47' W 095°05'0 0.0
2018-May-17 03:00N 29°47' W 095°05'0 0.0
2018-May-17 02:30N 29°47' W 095°05'0 0.0
2018-May-17 02:00N 29°47' W 095°05'0 0.0
2018-May-17 01:31N 29°47' W 095°05'0 0.0
2018-May-16 14:55N 29°47' W 095°04'0 1.0
2018-May-16 14:29N 29°47' W 095°05'0 0.1
2018-May-16 14:00N 29°47' W 095°05'0 0.0
2018-May-16 13:30N 29°47' W 095°05'0 0.0
2018-May-16 13:00N 29°47' W 095°05'0 0.0
2018-May-16 12:30N 29°47' W 095°05'0 0.0
2018-May-16 12:00N 29°47' W 095°05'0 0.0
2018-May-16 11:30N 29°47' W 095°05'0 0.0
2018-May-16 11:00N 29°47' W 095°05'0 0.0
2018-May-16 10:30N 29°47' W 095°05'0 0.0
2018-May-16 10:00N 29°47' W 095°05'0 0.0
2018-May-16 09:30N 29°47' W 095°05'0 0.0
2018-May-16 09:00N 29°47' W 095°05'0 0.0
2018-May-16 08:30N 29°47' W 095°05'0 0.0
2018-May-16 08:00N 29°47' W 095°05'0 0.0
2018-May-16 07:30N 29°47' W 095°05'0 0.0
2018-May-16 07:00N 29°47' W 095°05'0 0.0
2018-May-16 06:30N 29°47' W 095°05'0 0.0
2018-May-16 06:01N 29°47' W 095°05'0 0.0
2018-May-16 05:30N 29°47' W 095°05'0 0.0
2018-May-16 05:00N 29°47' W 095°05'0 0.0
2018-May-16 04:30N 29°47' W 095°05'0 0.0
2018-May-16 04:00N 29°47' W 095°05'0 0.0
2018-May-16 03:30N 29°47' W 095°05'0 0.0
2018-May-16 03:01N 29°47' W 095°05'0 0.0
2018-May-16 02:28N 29°47' W 095°05'0 0.0
2018-May-16 02:00N 29°47' W 095°05'0 0.0
2018-May-16 01:25N 29°47' W 095°05'5 0.8
2018-May-15 19:27N 29°44' W 095°08'  
Track history (hours):
 
Tides and Currents Weather Stations Pressure Air Temp Water Temp Dewpoint Dewpoint Depression Visibility Wind Speed Wind Dir Waves Ship Positions

Gertrude V. Creel

Owner: Blessey Enterprises, Inc., Harahan, LA. More information available from US FCC via Universal Licensing System and Coast Guard Vessel Documentation Center.

Last reported at 2018-May-25 11:00 UTC. Time now 2018-May-25 11:08 UTC.
Position N 29°58' W 093°51'.

Length 76 m; draft 2.7 m.

Type: Towing. MMSI: 367651830.

Date/timePositionNaut miles runAvg speedWind from/ knotsBaromVisibWave heightAir tempDewpointWater temp
2018-May-25 11:00N 29°58' W 093°51'0 0.0
2018-May-25 10:30N 29°58' W 093°51'0 0.0
2018-May-25 10:00N 29°58' W 093°51'0 0.0
2018-May-25 09:30N 29°58' W 093°51'0 0.0
2018-May-25 09:00N 29°58' W 093°51'0 0.0
2018-May-25 08:30N 29°58' W 093°51'0 0.0
2018-May-25 08:00N 29°58' W 093°51'0 0.0
2018-May-25 07:30N 29°58' W 093°51'0 0.1
2018-May-25 07:00N 29°58' W 093°51'0 0.3
2018-May-25 06:30N 29°58' W 093°51'1 1.1
2018-May-25 06:00N 29°59' W 093°52'5 9.1
2018-May-25 05:30N 29°60' W 093°57'4 7.0
2018-May-25 05:00N 30°01' W 094°00'4 7.8
2018-May-25 04:30N 30°04' W 094°03'1 1.0
2018-May-25 04:00N 30°04' W 094°04'0 0.0
2018-May-25 03:28N 30°04' W 094°04'0 0.0
2018-May-25 03:00N 30°04' W 094°04'0 0.0
2018-May-25 02:30N 30°04' W 094°04'0 0.0
2018-May-25 02:00N 30°04' W 094°04'0 0.0
2018-May-25 01:30N 30°04' W 094°04'0 0.0
2018-May-25 00:57N 30°04' W 094°04'0 0.0
2018-May-25 00:30N 30°04' W 094°04'0 0.0
2018-May-25 00:00N 30°04' W 094°04'0 0.0
2018-May-24 23:30N 30°04' W 094°04'0 0.0
2018-May-24 22:59N 30°04' W 094°04'0 0.0
2018-May-24 22:30N 30°04' W 094°04'0 0.0
2018-May-24 22:00N 30°04' W 094°04'0 0.0
2018-May-24 21:30N 30°04' W 094°04'0 0.0
2018-May-24 20:58N 30°04' W 094°04'0 0.0
2018-May-24 20:30N 30°04' W 094°04'0 0.0
2018-May-24 20:00N 30°04' W 094°04'0 0.0
2018-May-24 19:30N 30°04' W 094°04'0 0.0
2018-May-24 18:56N 30°04' W 094°04'0 0.0
2018-May-24 18:30N 30°04' W 094°04'0 0.0
2018-May-24 17:58N 30°04' W 094°04'0 0.0
2018-May-24 17:30N 30°04' W 094°04'0 0.0
2018-May-24 17:00N 30°04' W 094°04'0 0.0
2018-May-24 16:29N 30°04' W 094°04'0 0.0
2018-May-24 16:00N 30°04' W 094°04'0 0.0
2018-May-24 15:30N 30°04' W 094°04'0 0.0
2018-May-24 15:00N 30°04' W 094°04'0 0.0
2018-May-24 14:30N 30°04' W 094°04'0 0.0
2018-May-24 14:00N 30°04' W 094°04'0 0.0
2018-May-24 13:30N 30°04' W 094°04'0 0.0
2018-May-24 09:00N 30°04' W 094°04'1 1.4
2018-May-24 08:30N 30°04' W 094°03'3 6.8
2018-May-24 08:00N 30°01' W 094°01'3 6.7
2018-May-24 07:30N 30°00' W 093°57'4 7.9
2018-May-24 07:00N 29°59' W 093°53'2 3.8
2018-May-24 06:30N 29°58' W 093°51'0 0.3
2018-May-24 06:00N 29°58' W 093°51'0 0.0
2018-May-24 05:30N 29°58' W 093°51'0 0.0
2018-May-24 05:00N 29°58' W 093°51'0 0.0
2018-May-24 04:30N 29°58' W 093°51'0 0.0
2018-May-24 04:00N 29°58' W 093°51'0 0.0
2018-May-24 03:30N 29°58' W 093°51'0 0.0
2018-May-24 03:00N 29°58' W 093°51'0 0.0
2018-May-24 02:30N 29°58' W 093°51'0 0.0
2018-May-24 02:00N 29°58' W 093°51'0 0.0
2018-May-24 01:30N 29°58' W 093°51'0 0.0
2018-May-24 01:00N 29°58' W 093°51'0 0.0
2018-May-24 00:30N 29°58' W 093°51'0 0.0
2018-May-24 00:00N 29°58' W 093°51'0 0.0
2018-May-23 23:30N 29°58' W 093°51'0 0.0
2018-May-23 23:00N 29°58' W 093°51'0 0.0
2018-May-23 22:30N 29°58' W 093°51'0 0.0
2018-May-23 22:00N 29°58' W 093°51'0 0.0
2018-May-23 21:30N 29°58' W 093°51'0 0.0
2018-May-23 21:00N 29°58' W 093°51'0 0.0
2018-May-23 20:30N 29°58' W 093°51'0 0.0
2018-May-23 20:00N 29°58' W 093°51'0 0.0
2018-May-23 19:30N 29°58' W 093°51'0 0.0
2018-May-23 19:00N 29°58' W 093°51'0 0.0
2018-May-23 18:30N 29°58' W 093°51'0 0.0
2018-May-23 18:00N 29°58' W 093°51'0 0.0
2018-May-23 17:30N 29°58' W 093°51'0 0.0
2018-May-23 17:00N 29°58' W 093°51'0 0.0
2018-May-23 16:30N 29°58' W 093°51'0 0.0
2018-May-23 16:00N 29°58' W 093°51'0 0.0
2018-May-23 15:30N 29°58' W 093°51'0 0.0
2018-May-23 15:00N 29°58' W 093°51'0 0.0
2018-May-23 14:30N 29°58' W 093°51'0 0.0
2018-May-23 14:00N 29°58' W 093°51'0 0.0
2018-May-23 13:30N 29°58' W 093°51'0 0.0
2018-May-23 13:00N 29°58' W 093°51'0 0.3
2018-May-23 12:30N 29°58' W 093°51'0 0.0
2018-May-23 12:00N 29°58' W 093°51'0 0.0
2018-May-23 11:30N 29°58' W 093°51'0 0.0
2018-May-23 10:59N 29°58' W 093°51'0 0.0
2018-May-23 10:30N 29°58' W 093°51'0 0.0
2018-May-23 09:55N 29°58' W 093°51'0 0.0
2018-May-23 09:20N 29°58' W 093°51'0 0.0
2018-May-23 08:59N 29°58' W 093°51'0 0.0
2018-May-23 08:28N 29°58' W 093°51'0 0.0
2018-May-23 07:59N 29°58' W 093°51'0 0.0
2018-May-23 07:30N 29°58' W 093°51'0 0.0
2018-May-23 07:00N 29°58' W 093°51'0 0.0
2018-May-23 06:30N 29°58' W 093°51'0 0.0
2018-May-23 05:59N 29°58' W 093°51'0 0.0
2018-May-23 05:29N 29°58' W 093°51'0 0.0
2018-May-23 05:00N 29°58' W 093°51'0 0.0
2018-May-23 04:29N 29°58' W 093°51'0 0.0
2018-May-23 04:00N 29°58' W 093°51'0 0.0
2018-May-23 03:30N 29°58' W 093°51'0 0.0
2018-May-23 02:57N 29°58' W 093°51'0 0.0
2018-May-23 02:30N 29°58' W 093°51'0 0.0
2018-May-23 02:00N 29°58' W 093°51'0 0.0
2018-May-23 01:29N 29°58' W 093°51'0 0.0
2018-May-23 00:58N 29°58' W 093°51'0 0.0
2018-May-23 00:30N 29°58' W 093°51'0 0.0
2018-May-23 00:00N 29°58' W 093°51'0 0.0
2018-May-22 23:30N 29°58' W 093°51'0 0.0
2018-May-22 23:00N 29°58' W 093°51'0 0.0
2018-May-22 22:30N 29°58' W 093°51'0 0.0
2018-May-22 22:00N 29°58' W 093°51'0 0.0
2018-May-22 21:30N 29°58' W 093°51'0 0.0
2018-May-22 21:00N 29°58' W 093°51'0 0.0
2018-May-22 20:30N 29°58' W 093°51'0 0.0
2018-May-22 20:00N 29°58' W 093°51'0 0.0
2018-May-22 19:30N 29°58' W 093°51'0 0.0
2018-May-22 19:00N 29°58' W 093°51'0 0.0
2018-May-22 18:30N 29°58' W 093°51'0 0.0
2018-May-22 18:00N 29°58' W 093°51'0 0.0
2018-May-22 17:30N 29°58' W 093°51'0 0.0
2018-May-22 17:00N 29°58' W 093°51'0 0.0
2018-May-22 16:30N 29°58' W 093°51'0 0.1
2018-May-22 16:01N 29°58' W 093°51'0 0.0
2018-May-22 15:30N 29°58' W 093°51'0 0.0
2018-May-22 15:01N 29°58' W 093°51'0 0.0
2018-May-22 14:30N 29°58' W 093°51'0 0.0
2018-May-22 14:00N 29°58' W 093°51'0 0.0
2018-May-22 13:30N 29°58' W 093°51'0 0.0
2018-May-22 13:01N 29°58' W 093°51'0 0.0
2018-May-22 12:31N 29°58' W 093°51'0 0.0
2018-May-22 12:00N 29°58' W 093°51'0 0.1
2018-May-22 11:30N 29°58' W 093°51'0 0.0
2018-May-22 11:00N 29°58' W 093°51'0 0.0
2018-May-22 10:31N 29°58' W 093°51'0 0.0
2018-May-22 10:00N 29°58' W 093°51'0 0.0
2018-May-22 09:30N 29°58' W 093°51'0 0.0
2018-May-22 09:00N 29°58' W 093°51'0 0.0
2018-May-22 08:30N 29°58' W 093°51'0 0.0
2018-May-22 08:01N 29°58' W 093°51'0 0.0
2018-May-22 07:30N 29°58' W 093°51'0 0.0
2018-May-22 07:00N 29°58' W 093°51'0 0.0
2018-May-22 06:30N 29°58' W 093°51'0 0.0
2018-May-22 06:00N 29°58' W 093°51'0 0.0
2018-May-22 05:30N 29°58' W 093°51'0 0.0
2018-May-22 05:00N 29°58' W 093°51'0 0.0
2018-May-22 04:30N 29°58' W 093°51'0 0.0
2018-May-22 04:00N 29°58' W 093°51'0 0.0
2018-May-22 03:30N 29°58' W 093°51'0 0.0
2018-May-22 03:00N 29°58' W 093°51'0 0.0
2018-May-22 02:31N 29°58' W 093°51'0 0.0
2018-May-22 02:00N 29°58' W 093°51'0 0.0
2018-May-22 01:30N 29°58' W 093°51'0 0.1
2018-May-22 00:59N 29°58' W 093°51'0 0.1
2018-May-22 00:30N 29°58' W 093°51'0 0.1
2018-May-22 00:00N 29°58' W 093°51'0 0.0
2018-May-21 23:30N 29°58' W 093°51'0 0.0
2018-May-21 23:00N 29°58' W 093°51'0 0.0
2018-May-21 22:31N 29°58' W 093°51'0 0.0
2018-May-21 22:00N 29°58' W 093°51'0 0.0
2018-May-21 21:30N 29°58' W 093°51'0 0.0
2018-May-21 21:00N 29°58' W 093°51'0 0.0
2018-May-21 20:30N 29°58' W 093°51'0 0.0
2018-May-21 20:00N 29°58' W 093°51'0 0.0
2018-May-21 19:31N 29°58' W 093°51'0 0.0
2018-May-21 19:00N 29°58' W 093°51'0 0.0
2018-May-21 18:30N 29°58' W 093°51'0 0.0
2018-May-21 18:00N 29°58' W 093°51'0 0.0
2018-May-21 17:30N 29°58' W 093°51'0 0.0
2018-May-21 17:00N 29°58' W 093°51'1 1.1
2018-May-21 16:30N 29°58' W 093°51'0 0.1
2018-May-21 16:00N 29°58' W 093°51'0 0.0
2018-May-21 15:30N 29°58' W 093°51'0 0.0
2018-May-21 14:55N 29°58' W 093°51'0 0.0
2018-May-21 14:25N 29°58' W 093°51'1 1.4
2018-May-21 14:00N 29°58' W 093°51'0 0.0
2018-May-21 13:30N 29°58' W 093°51'0 0.0
2018-May-21 13:00N 29°58' W 093°51'0 0.0
2018-May-21 12:30N 29°58' W 093°51'0 0.0
2018-May-21 12:00N 29°58' W 093°51'0 0.0
2018-May-21 11:30N 29°58' W 093°51'0 0.0
2018-May-21 11:00N 29°58' W 093°51'0 0.0
2018-May-21 10:30N 29°58' W 093°51'0 0.0
2018-May-21 10:00N 29°58' W 093°51'0 0.0
2018-May-21 09:30N 29°58' W 093°51'0 0.0
2018-May-21 09:00N 29°58' W 093°51'0 0.0
2018-May-21 08:30N 29°58' W 093°51'0 0.0
2018-May-21 08:00N 29°58' W 093°51'0 0.0
2018-May-21 07:30N 29°58' W 093°51'0 0.0
2018-May-21 07:00N 29°58' W 093°51'0 0.0
2018-May-21 06:30N 29°58' W 093°51'0 0.0
2018-May-21 05:59N 29°58' W 093°51'0 0.0
2018-May-21 05:30N 29°58' W 093°51'0 0.0
2018-May-21 05:00N 29°58' W 093°51'0 0.0
2018-May-21 04:30N 29°58' W 093°51'0 0.0
2018-May-21 04:00N 29°58' W 093°51'0 0.0
2018-May-21 03:30N 29°58' W 093°51'0 0.0
2018-May-21 03:00N 29°58' W 093°51'0 0.0
2018-May-21 02:30N 29°58' W 093°51'1 2.5
2018-May-21 02:00N 29°57' W 093°52'4 7.4
2018-May-21 01:30N 29°54' W 093°54'4 7.3
2018-May-21 01:00N 29°51' W 093°57'3 6.5
2018-May-21 00:30N 29°49' W 093°59'3 6.0
2018-May-21 00:00N 29°47' W 094°02'3 5.7
2018-May-20 23:30N 29°45' W 094°04'3 5.6
2018-May-20 23:00N 29°43' W 094°07'3 5.5
2018-May-20 22:30N 29°42' W 094°09'3 5.4
2018-May-20 21:59N 29°41' W 094°12'10 5.6
2018-May-20 20:11N 29°36' W 094°23'2 4.7
2018-May-20 19:44N 29°35' W 094°25'22 5.0
2018-May-20 15:15N 29°23' W 094°46'1 5.6
2018-May-20 15:00N 29°22' W 094°48'2 3.3
2018-May-20 14:30N 29°23' W 094°49'3 5.7
2018-May-20 14:00N 29°26' W 094°50'3 6.0
2018-May-20 13:25N 29°29' W 094°52'3 6.3
2018-May-20 12:58N 29°32' W 094°54'3 6.5
2018-May-20 12:30N 29°34' W 094°55'4 7.1
2018-May-20 12:00N 29°37' W 094°58'4 7.6
2018-May-20 11:30N 29°41' W 094°59'4 0.8
2018-May-20 07:04N 29°44' W 095°01'0 0.0
2018-May-19 16:08N 29°44' W 095°01'0 0.0
2018-May-19 05:54N 29°44' W 095°01'0 0.0
2018-May-18 19:39N 29°44' W 095°01'0 1.8
2018-May-18 19:30N 29°44' W 095°02'4 0.8
2018-May-18 14:03N 29°47' W 095°05'0 0.0
2018-May-18 14:00N 29°47' W 095°05'0 0.0
2018-May-18 13:26N 29°47' W 095°05'0 0.0
2018-May-18 12:39N 29°47' W 095°05'0 0.0
2018-May-18 12:29N 29°47' W 095°05'0 0.0
2018-May-18 11:56N 29°47' W 095°05'0 0.0
2018-May-18 11:30N 29°47' W 095°05'0 0.0
2018-May-18 11:00N 29°47' W 095°05'0 0.0
2018-May-18 10:31N 29°47' W 095°05'0 0.0
2018-May-18 10:00N 29°47' W 095°05'0 0.0
2018-May-18 09:31N 29°47' W 095°05'0 0.0
2018-May-18 09:00N 29°47' W 095°05'0 0.0
2018-May-18 08:30N 29°47' W 095°05'0 0.0
2018-May-18 08:00N 29°47' W 095°05'0 0.0
2018-May-18 07:30N 29°47' W 095°05'0 0.0
2018-May-18 07:00N 29°47' W 095°05'0 0.0
2018-May-18 06:30N 29°47' W 095°05'0 0.0
2018-May-18 06:00N 29°47' W 095°05'0 0.0
2018-May-18 05:30N 29°47' W 095°05'0 0.0
2018-May-18 05:00N 29°47' W 095°05'0 0.0
2018-May-18 04:30N 29°47' W 095°05'0 0.0
2018-May-18 04:00N 29°47' W 095°05'0 0.0
2018-May-18 03:30N 29°47' W 095°05'0 0.0
2018-May-18 03:01N 29°47' W 095°05'0 0.0
2018-May-18 02:30N 29°47' W 095°05'0 0.2
2018-May-18 02:01N 29°47' W 095°05'0 0.0
2018-May-17 14:43N 29°47' W 095°05'0 0.0
2018-May-17 14:28N 29°47' W 095°05'0 0.0
2018-May-17 13:57N 29°47' W 095°05'0 0.0
2018-May-17 13:30N 29°47' W 095°05'0 0.0
2018-May-17 13:00N 29°47' W 095°05'0 0.0
2018-May-17 12:31N 29°47' W 095°05'0 0.0
2018-May-17 12:00N 29°47' W 095°05'0 0.0
2018-May-17 11:30N 29°47' W 095°05'0 0.0
2018-May-17 11:00N 29°47' W 095°05'0 0.0
2018-May-17 10:30N 29°47' W 095°05'0 0.0
2018-May-17 10:01N 29°47' W 095°05'0 0.0
2018-May-17 09:31N 29°47' W 095°05'0 0.0
2018-May-17 09:00N 29°47' W 095°05'0 0.0
2018-May-17 08:30N 29°47' W 095°05'0 0.0
2018-May-17 08:01N 29°47' W 095°05'0 0.0
2018-May-17 07:30N 29°47' W 095°05'0 0.0
2018-May-17 06:57N 29°47' W 095°05'0 0.0
2018-May-17 06:30N 29°47' W 095°05'0 0.0
2018-May-17 06:00N 29°47' W 095°05'0 0.0
2018-May-17 05:30N 29°47' W 095°05'0 0.0
2018-May-17 05:00N 29°47' W 095°05'0 0.0
2018-May-17 04:30N 29°47' W 095°05'0 0.0
2018-May-17 04:01N 29°47' W 095°05'0 0.0
2018-May-17 03:30N 29°47' W 095°05'0 0.0
2018-May-17 03:00N 29°47' W 095°05'0 0.0
2018-May-17 02:30N 29°47' W 095°05'0 0.0
2018-May-17 02:00N 29°47' W 095°05'0 0.0
2018-May-17 01:31N 29°47' W 095°05'0 0.0
2018-May-16 14:55N 29°47' W 095°04'0 1.0
2018-May-16 14:29N 29°47' W 095°05'0 0.1
2018-May-16 14:00N 29°47' W 095°05'0 0.0
2018-May-16 13:30N 29°47' W 095°05'0 0.0
2018-May-16 13:00N 29°47' W 095°05'0 0.0
2018-May-16 12:30N 29°47' W 095°05'0 0.0
2018-May-16 12:00N 29°47' W 095°05'0 0.0
2018-May-16 11:30N 29°47' W 095°05'0 0.0
2018-May-16 11:00N 29°47' W 095°05'0 0.0
2018-May-16 10:30N 29°47' W 095°05'0 0.0
2018-May-16 10:00N 29°47' W 095°05'0 0.0
2018-May-16 09:30N 29°47' W 095°05'0 0.0
2018-May-16 09:00N 29°47' W 095°05'0 0.0
2018-May-16 08:30N 29°47' W 095°05'0 0.0
2018-May-16 08:00N 29°47' W 095°05'0 0.0
2018-May-16 07:30N 29°47' W 095°05'0 0.0
2018-May-16 07:00N 29°47' W 095°05'0 0.0
2018-May-16 06:30N 29°47' W 095°05'0 0.0
2018-May-16 06:01N 29°47' W 095°05'0 0.0
2018-May-16 05:30N 29°47' W 095°05'0 0.0
2018-May-16 05:00N 29°47' W 095°05'0 0.0
2018-May-16 04:30N 29°47' W 095°05'0 0.0
2018-May-16 04:00N 29°47' W 095°05'0 0.0
2018-May-16 03:30N 29°47' W 095°05'0 0.0
2018-May-16 03:01N 29°47' W 095°05'0 0.0
2018-May-16 02:28N 29°47' W 095°05'0 0.0
2018-May-16 02:00N 29°47' W 095°05'0 0.0
2018-May-16 01:25N 29°47' W 095°05'5 0.8
2018-May-15 19:27N 29°44' W 095°08'  

Dump ship's entire track history